sensor_id;sensor_type;location;lat;lon;timestamp;pressure;altitude;pressure_sealevel;temperature;humidity
26711;BME280;18311;52.754;18.118;2023-02-16T00:00:35;101377.01;;;15.88;41.61
26711;BME280;18311;52.754;18.118;2023-02-16T00:03:17;101372.59;;;15.87;41.22
26711;BME280;18311;52.754;18.118;2023-02-16T00:05:44;101373.42;;;15.53;41.74
26711;BME280;18311;52.754;18.118;2023-02-16T00:08:14;101371.53;;;15.90;41.05
26711;BME280;18311;52.754;18.118;2023-02-16T00:10:45;101365.89;;;15.59;41.57
26711;BME280;18311;52.754;18.118;2023-02-16T00:13:28;101372.56;;;15.70;41.16
26711;BME280;18311;52.754;18.118;2023-02-16T00:16:19;101368.73;;;15.56;41.30
26711;BME280;18311;52.754;18.118;2023-02-16T00:18:51;101366.05;;;15.74;41.31
26711;BME280;18311;52.754;18.118;2023-02-16T00:21:22;101364.53;;;15.33;41.82
26711;BME280;18311;52.754;18.118;2023-02-16T00:23:52;101358.50;;;14.72;42.96
26711;BME280;18311;52.754;18.118;2023-02-16T00:26:24;101361.59;;;15.20;42.65
26711;BME280;18311;52.754;18.118;2023-02-16T00:28:57;101362.87;;;14.16;44.61
26711;BME280;18311;52.754;18.118;2023-02-16T00:31:30;101356.39;;;13.81;45.43
26711;BME280;18311;52.754;18.118;2023-02-16T00:34:23;101363.61;;;13.38;46.61
26711;BME280;18311;52.754;18.118;2023-02-16T00:36:54;101350.19;;;13.16;47.17
26711;BME280;18311;52.754;18.118;2023-02-16T00:39:25;101357.86;;;13.25;47.02
26711;BME280;18311;52.754;18.118;2023-02-16T00:42:10;101345.03;;;13.74;46.52
26711;BME280;18311;52.754;18.118;2023-02-16T00:44:43;101343.87;;;14.78;43.97
26711;BME280;18311;52.754;18.118;2023-02-16T00:47:21;101341.48;;;14.72;44.30
26711;BME280;18311;52.754;18.118;2023-02-16T00:49:54;101342.48;;;14.50;44.70
26711;BME280;18311;52.754;18.118;2023-02-16T00:52:39;101344.13;;;13.11;46.90
26711;BME280;18311;52.754;18.118;2023-02-16T00:55:17;101336.77;;;13.58;46.31
26711;BME280;18311;52.754;18.118;2023-02-16T00:57:57;101335.97;;;13.56;46.09
26711;BME280;18311;52.754;18.118;2023-02-16T01:00:40;101333.80;;;13.85;46.28
26711;BME280;18311;52.754;18.118;2023-02-16T01:03:25;101335.12;;;13.12;47.39
26711;BME280;18311;52.754;18.118;2023-02-16T01:05:35;101330.02;;;13.06;47.59
26711;BME280;18311;52.754;18.118;2023-02-16T01:08:16;101322.70;;;13.09;47.98
26711;BME280;18311;52.754;18.118;2023-02-16T01:11:13;101315.13;;;13.82;46.51
26711;BME280;18311;52.754;18.118;2023-02-16T01:13:47;101306.38;;;14.16;45.69
26711;BME280;18311;52.754;18.118;2023-02-16T01:16:23;101305.62;;;13.94;45.87
26711;BME280;18311;52.754;18.118;2023-02-16T01:18:54;101304.02;;;13.90;45.91
26711;BME280;18311;52.754;18.118;2023-02-16T01:21:25;101302.17;;;13.51;46.84
26711;BME280;18311;52.754;18.118;2023-02-16T01:23:56;101302.98;;;13.31;47.68
26711;BME280;18311;52.754;18.118;2023-02-16T01:26:29;101294.25;;;13.26;47.06
26711;BME280;18311;52.754;18.118;2023-02-16T01:29:01;101293.23;;;13.08;48.06
26711;BME280;18311;52.754;18.118;2023-02-16T01:31:32;101298.16;;;12.96;47.97
26711;BME280;18311;52.754;18.118;2023-02-16T01:34:03;101289.98;;;12.99;47.92
26711;BME280;18311;52.754;18.118;2023-02-16T01:36:36;101286.94;;;13.29;48.28
26711;BME280;18311;52.754;18.118;2023-02-16T01:39:08;101276.57;;;14.02;46.44
26711;BME280;18311;52.754;18.118;2023-02-16T01:42:08;101276.27;;;14.08;45.51
26711;BME280;18311;52.754;18.118;2023-02-16T01:44:26;101277.80;;;14.52;44.64
26711;BME280;18311;52.754;18.118;2023-02-16T01:49:48;101272.39;;;14.90;44.39
26711;BME280;18311;52.754;18.118;2023-02-16T01:52:31;101261.09;;;14.07;46.13
26711;BME280;18311;52.754;18.118;2023-02-16T01:55:23;101259.34;;;14.44;44.58
26711;BME280;18311;52.754;18.118;2023-02-16T01:58:04;101260.58;;;14.56;44.40
26711;BME280;18311;52.754;18.118;2023-02-16T02:03:33;101255.19;;;14.75;44.20
26711;BME280;18311;52.754;18.118;2023-02-16T02:06:31;101260.00;;;14.68;44.26
26711;BME280;18311;52.754;18.118;2023-02-16T02:09:15;101247.00;;;14.21;45.45
26711;BME280;18311;52.754;18.118;2023-02-16T02:11:56;101247.13;;;14.37;45.66
26711;BME280;18311;52.754;18.118;2023-02-16T02:14:27;101243.28;;;13.24;47.08
26711;BME280;18311;52.754;18.118;2023-02-16T02:17:05;101242.86;;;12.92;49.03
26711;BME280;18311;52.754;18.118;2023-02-16T02:28:47;101215.48;;;13.04;48.76
26711;BME280;18311;52.754;18.118;2023-02-16T02:37:21;101225.58;;;14.56;45.43
26711;BME280;18311;52.754;18.118;2023-02-16T02:45:59;101206.09;;;14.51;44.69
26711;BME280;18311;52.754;18.118;2023-02-16T02:48:30;101206.41;;;14.81;43.83
26711;BME280;18311;52.754;18.118;2023-02-16T02:51:12;101201.60;;;15.56;43.49
26711;BME280;18311;52.754;18.118;2023-02-16T02:54:17;101196.27;;;15.21;42.96
26711;BME280;18311;52.754;18.118;2023-02-16T03:03:10;101190.09;;;14.48;43.99
26711;BME280;18311;52.754;18.118;2023-02-16T03:05:37;101186.22;;;14.90;43.25
26711;BME280;18311;52.754;18.118;2023-02-16T03:08:09;101176.20;;;13.83;45.80
26711;BME280;18311;52.754;18.118;2023-02-16T03:11:00;101183.52;;;14.53;44.78
26711;BME280;18311;52.754;18.118;2023-02-16T03:13:42;101185.98;;;14.77;44.31
26711;BME280;18311;52.754;18.118;2023-02-16T03:16:24;101196.23;;;14.13;44.29
26711;BME280;18311;52.754;18.118;2023-02-16T03:18:50;101196.50;;;14.64;44.83
26711;BME280;18311;52.754;18.118;2023-02-16T03:21:40;101193.48;;;14.15;44.26
26711;BME280;18311;52.754;18.118;2023-02-16T03:24:30;101202.59;;;13.54;45.37
26711;BME280;18311;52.754;18.118;2023-02-16T03:27:23;101205.06;;;14.90;44.12
26711;BME280;18311;52.754;18.118;2023-02-16T03:30:15;101199.59;;;15.26;42.67
26711;BME280;18311;52.754;18.118;2023-02-16T03:32:47;101217.03;;;15.02;43.25
26711;BME280;18311;52.754;18.118;2023-02-16T03:35:21;101216.33;;;14.98;43.33
26711;BME280;18311;52.754;18.118;2023-02-16T03:37:55;101207.66;;;14.74;43.65
26711;BME280;18311;52.754;18.118;2023-02-16T03:40:28;101198.83;;;12.54;47.59
26711;BME280;18311;52.754;18.118;2023-02-16T03:43:04;101198.44;;;14.24;44.87
26711;BME280;18311;52.754;18.118;2023-02-16T03:45:40;101194.36;;;14.88;43.61
26711;BME280;18311;52.754;18.118;2023-02-16T03:48:12;101200.35;;;14.40;43.18
26711;BME280;18311;52.754;18.118;2023-02-16T03:50:44;101196.16;;;14.34;43.96
26711;BME280;18311;52.754;18.118;2023-02-16T03:53:18;101194.06;;;13.65;44.44
26711;BME280;18311;52.754;18.118;2023-02-16T03:55:49;101193.41;;;14.72;43.96
26711;BME280;18311;52.754;18.118;2023-02-16T03:58:22;101185.98;;;14.77;43.42
26711;BME280;18311;52.754;18.118;2023-02-16T04:00:57;101193.50;;;14.88;43.21
26711;BME280;18311;52.754;18.118;2023-02-16T04:03:30;101184.22;;;14.76;43.09
26711;BME280;18311;52.754;18.118;2023-02-16T04:06:01;101183.09;;;14.26;43.95
26711;BME280;18311;52.754;18.118;2023-02-16T04:08:33;101177.58;;;13.72;45.08
26711;BME280;18311;52.754;18.118;2023-02-16T04:11:06;101177.09;;;13.23;45.82
26711;BME280;18311;52.754;18.118;2023-02-16T04:13:55;101174.31;;;13.85;44.27
26711;BME280;18311;52.754;18.118;2023-02-16T04:16:27;101169.38;;;13.94;43.94
26711;BME280;18311;52.754;18.118;2023-02-16T04:18:59;101169.42;;;14.48;43.34
26711;BME280;18311;52.754;18.118;2023-02-16T04:21:31;101166.27;;;14.40;43.35
26711;BME280;18311;52.754;18.118;2023-02-16T04:24:04;101165.07;;;14.65;42.83
26711;BME280;18311;52.754;18.118;2023-02-16T04:26:47;101163.66;;;14.75;42.67
26711;BME280;18311;52.754;18.118;2023-02-16T04:29:19;101171.55;;;14.05;43.72
26711;BME280;18311;52.754;18.118;2023-02-16T04:31:50;101174.23;;;14.05;44.01
26711;BME280;18311;52.754;18.118;2023-02-16T04:34:24;101178.71;;;14.24;43.65
26711;BME280;18311;52.754;18.118;2023-02-16T04:36:58;101179.33;;;14.48;42.69
26711;BME280;18311;52.754;18.118;2023-02-16T04:39:31;101184.48;;;14.71;42.76
26711;BME280;18311;52.754;18.118;2023-02-16T04:42:05;101186.27;;;13.58;44.82
26711;BME280;18311;52.754;18.118;2023-02-16T04:44:37;101191.94;;;13.71;44.65
26711;BME280;18311;52.754;18.118;2023-02-16T04:47:10;101196.19;;;14.51;43.53
26711;BME280;18311;52.754;18.118;2023-02-16T04:49:44;101183.73;;;14.31;43.25
26711;BME280;18311;52.754;18.118;2023-02-16T04:52:18;101179.19;;;14.51;43.18
26711;BME280;18311;52.754;18.118;2023-02-16T04:54:53;101185.03;;;14.42;43.24
26711;BME280;18311;52.754;18.118;2023-02-16T04:57:24;101185.20;;;14.93;42.46
26711;BME280;18311;52.754;18.118;2023-02-16T04:59:58;101190.08;;;14.67;42.35
26711;BME280;18311;52.754;18.118;2023-02-16T05:02:33;101180.77;;;14.55;42.90
26711;BME280;18311;52.754;18.118;2023-02-16T05:05:06;101173.69;;;14.35;42.85
26711;BME280;18311;52.754;18.118;2023-02-16T05:07:38;101170.05;;;14.72;42.35
26711;BME280;18311;52.754;18.118;2023-02-16T05:10:12;101166.09;;;14.97;42.07
26711;BME280;18311;52.754;18.118;2023-02-16T05:12:45;101166.31;;;13.83;43.42
26711;BME280;18311;52.754;18.118;2023-02-16T05:15:34;101163.38;;;14.62;42.75
26711;BME280;18311;52.754;18.118;2023-02-16T05:18:06;101158.04;;;13.88;43.77
26711;BME280;18311;52.754;18.118;2023-02-16T05:20:37;101157.27;;;14.22;43.58
26711;BME280;18311;52.754;18.118;2023-02-16T05:23:26;101154.86;;;14.35;42.90
26711;BME280;18311;52.754;18.118;2023-02-16T05:25:57;101144.14;;;15.22;41.62
26711;BME280;18311;52.754;18.118;2023-02-16T05:28:30;101144.94;;;13.99;43.40
26711;BME280;18311;52.754;18.118;2023-02-16T05:31:02;101147.54;;;14.20;43.76
26711;BME280;18311;52.754;18.118;2023-02-16T05:33:34;101146.39;;;14.43;42.68
26711;BME280;18311;52.754;18.118;2023-02-16T05:36:05;101149.30;;;14.21;42.96
26711;BME280;18311;52.754;18.118;2023-02-16T05:38:36;101150.23;;;13.63;43.24
26711;BME280;18311;52.754;18.118;2023-02-16T05:41:08;101144.27;;;14.13;43.06
26711;BME280;18311;52.754;18.118;2023-02-16T05:43:39;101138.56;;;14.02;43.90
26711;BME280;18311;52.754;18.118;2023-02-16T05:46:15;101140.22;;;13.66;43.70
26711;BME280;18311;52.754;18.118;2023-02-16T05:48:46;101142.23;;;14.18;43.20
26711;BME280;18311;52.754;18.118;2023-02-16T05:51:18;101131.64;;;15.37;42.07
26711;BME280;18311;52.754;18.118;2023-02-16T05:53:49;101136.59;;;14.42;42.43
26711;BME280;18311;52.754;18.118;2023-02-16T05:56:22;101133.46;;;13.95;43.79
26711;BME280;18311;52.754;18.118;2023-02-16T05:58:56;101136.99;;;14.15;43.94
26711;BME280;18311;52.754;18.118;2023-02-16T06:01:28;101142.05;;;14.40;42.85
26711;BME280;18311;52.754;18.118;2023-02-16T06:04:00;101144.20;;;14.14;43.46
26711;BME280;18311;52.754;18.118;2023-02-16T06:06:34;101135.88;;;14.38;42.77
26711;BME280;18311;52.754;18.118;2023-02-16T06:09:06;101139.88;;;13.74;44.57
26711;BME280;18311;52.754;18.118;2023-02-16T06:11:38;101133.91;;;14.05;43.66
26711;BME280;18311;52.754;18.118;2023-02-16T06:14:17;101149.00;;;14.08;43.47
26711;BME280;18311;52.754;18.118;2023-02-16T06:16:49;101137.84;;;13.98;43.88
26711;BME280;18311;52.754;18.118;2023-02-16T06:19:24;101159.94;;;13.86;44.11
26711;BME280;18311;52.754;18.118;2023-02-16T06:21:58;101148.05;;;14.28;43.23
26711;BME280;18311;52.754;18.118;2023-02-16T06:24:30;101142.42;;;14.86;42.26
26711;BME280;18311;52.754;18.118;2023-02-16T06:27:04;101152.34;;;13.75;44.10
26711;BME280;18311;52.754;18.118;2023-02-16T06:29:36;101151.34;;;14.15;43.91
26711;BME280;18311;52.754;18.118;2023-02-16T06:32:08;101162.75;;;14.21;43.50
26711;BME280;18311;52.754;18.118;2023-02-16T06:34:41;101161.20;;;14.15;43.51
26711;BME280;18311;52.754;18.118;2023-02-16T06:37:14;101159.86;;;13.68;44.44
26711;BME280;18311;52.754;18.118;2023-02-16T06:39:44;101156.47;;;14.20;43.59
26711;BME280;18311;52.754;18.118;2023-02-16T06:42:15;101151.35;;;14.69;42.56
26711;BME280;18311;52.754;18.118;2023-02-16T06:44:50;101166.90;;;13.90;43.20
26711;BME280;18311;52.754;18.118;2023-02-16T06:47:22;101168.19;;;13.62;44.28
26711;BME280;18311;52.754;18.118;2023-02-16T06:49:54;101173.86;;;14.13;43.89
26711;BME280;18311;52.754;18.118;2023-02-16T06:52:27;101159.84;;;14.43;43.26
26711;BME280;18311;52.754;18.118;2023-02-16T06:55:01;101168.53;;;14.30;43.64
26711;BME280;18311;52.754;18.118;2023-02-16T06:57:36;101155.23;;;14.64;42.89
26711;BME280;18311;52.754;18.118;2023-02-16T07:00:08;101154.96;;;14.51;43.19
26711;BME280;18311;52.754;18.118;2023-02-16T07:02:40;101144.09;;;14.71;42.87
26711;BME280;18311;52.754;18.118;2023-02-16T07:05:12;101150.69;;;14.10;44.13
26711;BME280;18311;52.754;18.118;2023-02-16T07:07:45;101150.75;;;14.82;42.57
26711;BME280;18311;52.754;18.118;2023-02-16T07:10:17;101138.11;;;13.92;43.83
26711;BME280;18311;52.754;18.118;2023-02-16T07:12:50;101138.07;;;14.30;43.72
26711;BME280;18311;52.754;18.118;2023-02-16T07:15:23;101132.61;;;15.03;42.27
26711;BME280;18311;52.754;18.118;2023-02-16T07:17:56;101140.22;;;13.85;44.36
26711;BME280;18311;52.754;18.118;2023-02-16T07:20:28;101144.59;;;13.88;44.70
26711;BME280;18311;52.754;18.118;2023-02-16T07:23:01;101141.44;;;14.52;42.84
26711;BME280;18311;52.754;18.118;2023-02-16T07:25:33;101141.97;;;14.05;44.23
26711;BME280;18311;52.754;18.118;2023-02-16T07:28:06;101135.94;;;14.00;44.09
26711;BME280;18311;52.754;18.118;2023-02-16T07:30:38;101122.11;;;15.14;42.32
26711;BME280;18311;52.754;18.118;2023-02-16T07:33:09;101116.80;;;14.43;43.46
26711;BME280;18311;52.754;18.118;2023-02-16T07:35:40;101120.25;;;14.27;43.37
26711;BME280;18311;52.754;18.118;2023-02-16T07:38:11;101120.89;;;14.32;43.91
26711;BME280;18311;52.754;18.118;2023-02-16T07:40:42;101117.95;;;14.20;44.54
26711;BME280;18311;52.754;18.118;2023-02-16T07:43:12;101123.28;;;14.02;44.50
26711;BME280;18311;52.754;18.118;2023-02-16T07:45:43;101115.70;;;14.47;44.05
26711;BME280;18311;52.754;18.118;2023-02-16T07:48:14;101115.22;;;14.39;44.08
26711;BME280;18311;52.754;18.118;2023-02-16T07:50:45;101118.43;;;13.53;45.47
26711;BME280;18311;52.754;18.118;2023-02-16T07:53:16;101115.28;;;15.24;43.01
26711;BME280;18311;52.754;18.118;2023-02-16T07:55:47;101111.65;;;15.25;42.76
26711;BME280;18311;52.754;18.118;2023-02-16T07:58:18;101117.31;;;15.37;42.71
26711;BME280;18311;52.754;18.118;2023-02-16T08:01:11;101115.47;;;15.86;41.52
26711;BME280;18311;52.754;18.118;2023-02-16T08:03:44;101114.28;;;15.92;41.52
26711;BME280;18311;52.754;18.118;2023-02-16T08:06:16;101120.17;;;15.83;41.60
26711;BME280;18311;52.754;18.118;2023-02-16T08:08:48;101118.39;;;15.50;42.32
26711;BME280;18311;52.754;18.118;2023-02-16T08:11:21;101115.89;;;14.96;42.64
26711;BME280;18311;52.754;18.118;2023-02-16T08:13:53;101125.25;;;14.71;43.36
26711;BME280;18311;52.754;18.118;2023-02-16T08:16:26;101131.08;;;14.97;43.12
26711;BME280;18311;52.754;18.118;2023-02-16T08:18:58;101131.83;;;14.29;44.20
26711;BME280;18311;52.754;18.118;2023-02-16T08:21:31;101116.94;;;15.60;42.96
26711;BME280;18311;52.754;18.118;2023-02-16T08:24:04;101119.41;;;15.47;42.85
26711;BME280;18311;52.754;18.118;2023-02-16T08:26:38;101120.62;;;15.91;41.94
26711;BME280;18311;52.754;18.118;2023-02-16T08:29:10;101124.23;;;16.38;41.20
26711;BME280;18311;52.754;18.118;2023-02-16T08:31:44;101134.14;;;15.74;42.24
26711;BME280;18311;52.754;18.118;2023-02-16T08:34:18;101125.48;;;16.32;41.16
26711;BME280;18311;52.754;18.118;2023-02-16T08:36:54;101130.59;;;15.24;43.22
26711;BME280;18311;52.754;18.118;2023-02-16T08:39:28;101132.43;;;14.88;43.73
26711;BME280;18311;52.754;18.118;2023-02-16T08:42:00;101135.37;;;15.68;42.90
26711;BME280;18311;52.754;18.118;2023-02-16T08:44:32;101138.19;;;15.82;42.30
26711;BME280;18311;52.754;18.118;2023-02-16T08:47:03;101136.41;;;16.45;41.99
26711;BME280;18311;52.754;18.118;2023-02-16T08:49:33;101140.00;;;16.76;41.13
26711;BME280;18311;52.754;18.118;2023-02-16T08:52:05;101136.30;;;16.93;41.10
26711;BME280;18311;52.754;18.118;2023-02-16T08:54:35;101132.05;;;16.89;41.30
26711;BME280;18311;52.754;18.118;2023-02-16T08:57:07;101135.95;;;16.53;41.96
26711;BME280;18311;52.754;18.118;2023-02-16T08:59:37;101132.91;;;16.89;41.17
26711;BME280;18311;52.754;18.118;2023-02-16T09:02:10;101142.92;;;17.61;40.63
26711;BME280;18311;52.754;18.118;2023-02-16T09:04:42;101142.43;;;17.11;40.79
26711;BME280;18311;52.754;18.118;2023-02-16T09:07:15;101139.38;;;18.16;39.97
26711;BME280;18311;52.754;18.118;2023-02-16T09:09:47;101138.29;;;17.48;40.84
26711;BME280;18311;52.754;18.118;2023-02-16T09:12:18;101134.91;;;18.29;39.26
26711;BME280;18311;52.754;18.118;2023-02-16T09:14:55;101130.95;;;17.22;40.90
26711;BME280;18311;52.754;18.118;2023-02-16T09:17:27;101144.05;;;18.00;40.36
26711;BME280;18311;52.754;18.118;2023-02-16T09:19:59;101147.66;;;18.82;38.93
26711;BME280;18311;52.754;18.118;2023-02-16T09:22:30;101148.40;;;17.73;40.40
26711;BME280;18311;52.754;18.118;2023-02-16T09:25:01;101143.30;;;17.40;41.41
26711;BME280;18311;52.754;18.118;2023-02-16T09:27:32;101150.89;;;17.05;42.13
26711;BME280;18311;52.754;18.118;2023-02-16T09:30:04;101136.55;;;17.62;40.14
26711;BME280;18311;52.754;18.118;2023-02-16T09:32:35;101143.62;;;18.47;40.27
26711;BME280;18311;52.754;18.118;2023-02-16T09:35:06;101152.54;;;18.62;39.49
26711;BME280;18311;52.754;18.118;2023-02-16T09:37:38;101150.05;;;19.63;37.81
26711;BME280;18311;52.754;18.118;2023-02-16T09:40:12;101150.69;;;19.67;37.94
26711;BME280;18311;52.754;18.118;2023-02-16T09:45:24;101147.45;;;20.73;36.93
26711;BME280;18311;52.754;18.118;2023-02-16T09:47:57;101154.38;;;20.77;35.66
26711;BME280;18311;52.754;18.118;2023-02-16T09:50:29;101158.70;;;21.26;35.07
26711;BME280;18311;52.754;18.118;2023-02-16T09:53:18;101149.56;;;22.06;34.22
26711;BME280;18311;52.754;18.118;2023-02-16T09:58:49;101145.87;;;22.08;34.04
26711;BME280;18311;52.754;18.118;2023-02-16T10:01:50;101133.95;;;22.63;33.88
26711;BME280;18311;52.754;18.118;2023-02-16T10:07:23;101138.63;;;22.40;33.98
26711;BME280;18311;52.754;18.118;2023-02-16T10:09:52;101106.09;;;22.60;33.19
26711;BME280;18311;52.754;18.118;2023-02-16T10:12:26;101129.34;;;23.79;32.21
26711;BME280;18311;52.754;18.118;2023-02-16T10:14:59;101148.14;;;22.46;33.61
26711;BME280;18311;52.754;18.118;2023-02-16T10:17:37;101136.36;;;23.72;32.13
26711;BME280;18311;52.754;18.118;2023-02-16T10:20:17;101134.44;;;23.93;31.84
26711;BME280;18311;52.754;18.118;2023-02-16T10:23:05;101138.09;;;24.23;31.66
26711;BME280;18311;52.754;18.118;2023-02-16T10:25:50;101146.56;;;24.10;31.21
26711;BME280;18311;52.754;18.118;2023-02-16T10:28:51;101131.45;;;23.35;32.61
26711;BME280;18311;52.754;18.118;2023-02-16T10:31:38;101136.58;;;23.90;32.09
26711;BME280;18311;52.754;18.118;2023-02-16T10:38:03;101124.23;;;25.79;30.46
26711;BME280;18311;52.754;18.118;2023-02-16T10:39:51;101119.59;;;24.76;30.45
26711;BME280;18311;52.754;18.118;2023-02-16T10:42:36;101118.06;;;25.30;30.69
26711;BME280;18311;52.754;18.118;2023-02-16T10:45:32;101118.56;;;24.47;31.50
26711;BME280;18311;52.754;18.118;2023-02-16T10:48:02;101109.73;;;25.22;30.81
26711;BME280;18311;52.754;18.118;2023-02-16T10:50:45;101114.46;;;23.93;32.64
26711;BME280;18311;52.754;18.118;2023-02-16T10:55:58;101113.97;;;21.30;36.22
26711;BME280;18311;52.754;18.118;2023-02-16T10:58:37;101110.75;;;21.82;35.56
26711;BME280;18311;52.754;18.118;2023-02-16T11:01:09;101119.53;;;21.97;35.05
26711;BME280;18311;52.754;18.118;2023-02-16T11:03:49;101111.33;;;22.52;34.93
26711;BME280;18311;52.754;18.118;2023-02-16T11:06:18;101107.90;;;22.92;34.30
26711;BME280;18311;52.754;18.118;2023-02-16T11:08:52;101114.08;;;21.97;35.42
26711;BME280;18311;52.754;18.118;2023-02-16T11:11:28;101102.00;;;22.33;34.99
26711;BME280;18311;52.754;18.118;2023-02-16T11:14:04;101107.22;;;22.78;34.87
26711;BME280;18311;52.754;18.118;2023-02-16T11:16:38;101098.15;;;21.69;36.28
26711;BME280;18311;52.754;18.118;2023-02-16T11:19:18;101097.14;;;21.25;36.42
26711;BME280;18311;52.754;18.118;2023-02-16T11:21:54;101102.36;;;22.61;35.06
26711;BME280;18311;52.754;18.118;2023-02-16T11:24:29;101087.05;;;22.49;35.47
26711;BME280;18311;52.754;18.118;2023-02-16T11:27:05;101092.09;;;21.66;36.63
26711;BME280;18311;52.754;18.118;2023-02-16T11:29:37;101079.95;;;21.13;37.35
26711;BME280;18311;52.754;18.118;2023-02-16T11:32:11;101080.53;;;20.94;37.37
26711;BME280;18311;52.754;18.118;2023-02-16T11:34:46;101084.41;;;21.15;37.62
26711;BME280;18311;52.754;18.118;2023-02-16T11:37:27;101092.48;;;21.50;37.59
26711;BME280;18311;52.754;18.118;2023-02-16T11:40:12;101082.62;;;19.33;39.99
26711;BME280;18311;52.754;18.118;2023-02-16T11:42:47;101078.90;;;20.81;38.27
26711;BME280;18311;52.754;18.118;2023-02-16T11:45:21;101085.30;;;21.60;37.08
26711;BME280;18311;52.754;18.118;2023-02-16T11:48:04;101081.20;;;21.77;36.85
26711;BME280;18311;52.754;18.118;2023-02-16T11:50:28;101077.42;;;20.77;37.90
26711;BME280;18311;52.754;18.118;2023-02-16T11:55:47;101079.31;;;20.28;38.96
26711;BME280;18311;52.754;18.118;2023-02-16T11:58:28;101079.11;;;20.66;38.55
26711;BME280;18311;52.754;18.118;2023-02-16T12:01:06;101086.23;;;19.84;39.78
26711;BME280;18311;52.754;18.118;2023-02-16T12:07:04;101086.13;;;21.38;37.59
26711;BME280;18311;52.754;18.118;2023-02-16T12:09:56;101081.19;;;22.65;36.06
26711;BME280;18311;52.754;18.118;2023-02-16T12:12:44;101088.44;;;21.99;36.69
26711;BME280;18311;52.754;18.118;2023-02-16T12:15:24;101078.93;;;23.12;35.30
26711;BME280;18311;52.754;18.118;2023-02-16T12:18:04;101080.77;;;22.90;35.34
26711;BME280;18311;52.754;18.118;2023-02-16T12:20:47;101079.50;;;20.13;38.63
26711;BME280;18311;52.754;18.118;2023-02-16T12:23:34;101064.20;;;22.61;36.39
26711;BME280;18311;52.754;18.118;2023-02-16T12:31:51;101064.77;;;22.11;36.96
26711;BME280;18311;52.754;18.118;2023-02-16T12:45:45;101038.44;;;23.17;35.52
26711;BME280;18311;52.754;18.118;2023-02-16T12:48:29;101028.06;;;23.82;34.30
26711;BME280;18311;52.754;18.118;2023-02-16T12:50:56;101033.67;;;23.40;34.99
26711;BME280;18311;52.754;18.118;2023-02-16T12:53:37;101040.00;;;22.47;35.85
26711;BME280;18311;52.754;18.118;2023-02-16T12:56:08;101025.95;;;23.14;34.94
26711;BME280;18311;52.754;18.118;2023-02-16T12:58:42;101022.07;;;23.17;34.93
26711;BME280;18311;52.754;18.118;2023-02-16T13:01:22;101023.20;;;23.45;34.14
26711;BME280;18311;52.754;18.118;2023-02-16T13:04:17;101019.09;;;22.47;35.30
26711;BME280;18311;52.754;18.118;2023-02-16T13:09:58;101013.72;;;24.29;33.50
26711;BME280;18311;52.754;18.118;2023-02-16T13:15:15;101024.69;;;23.59;33.99
26711;BME280;18311;52.754;18.118;2023-02-16T13:17:56;101013.11;;;23.86;33.81
26711;BME280;18311;52.754;18.118;2023-02-16T13:20:25;101011.26;;;24.16;34.03
26711;BME280;18311;52.754;18.118;2023-02-16T13:23:16;101005.75;;;23.77;34.39
26711;BME280;18311;52.754;18.118;2023-02-16T13:28:50;101011.89;;;23.60;34.78
26711;BME280;18311;52.754;18.118;2023-02-16T13:37:21;100994.59;;;24.19;33.78
26711;BME280;18311;52.754;18.118;2023-02-16T13:39:59;101004.92;;;24.06;33.75
26711;BME280;18311;52.754;18.118;2023-02-16T13:45:37;101001.62;;;24.02;34.07
26711;BME280;18311;52.754;18.118;2023-02-16T13:48:20;101003.35;;;23.43;34.40
26711;BME280;18311;52.754;18.118;2023-02-16T13:50:44;100990.49;;;23.74;34.09
26711;BME280;18311;52.754;18.118;2023-02-16T13:53:19;100994.68;;;22.97;35.37
26711;BME280;18311;52.754;18.118;2023-02-16T13:58:40;100981.16;;;22.86;35.96
26711;BME280;18311;52.754;18.118;2023-02-16T14:01:37;100981.67;;;22.28;36.44
26711;BME280;18311;52.754;18.118;2023-02-16T14:04:58;100991.08;;;22.66;35.68
26711;BME280;18311;52.754;18.118;2023-02-16T14:12:18;100985.35;;;23.21;34.81
26711;BME280;18311;52.754;18.118;2023-02-16T14:14:55;100983.53;;;23.41;34.83
26711;BME280;18311;52.754;18.118;2023-02-16T14:17:32;100991.42;;;23.94;34.27
26711;BME280;18311;52.754;18.118;2023-02-16T14:22:51;100990.08;;;23.79;34.54
26711;BME280;18311;52.754;18.118;2023-02-16T14:30:48;100990.05;;;23.60;34.93
26711;BME280;18311;52.754;18.118;2023-02-16T14:33:27;100989.69;;;23.93;34.44
26711;BME280;18311;52.754;18.118;2023-02-16T14:38:44;100989.69;;;24.13;34.34
26711;BME280;18311;52.754;18.118;2023-02-16T14:41:27;100988.17;;;23.50;35.34
26711;BME280;18311;52.754;18.118;2023-02-16T14:46:59;100991.88;;;21.71;38.01
26711;BME280;18311;52.754;18.118;2023-02-16T14:49:52;100979.30;;;23.68;35.42
26711;BME280;18311;52.754;18.118;2023-02-16T14:52:51;100975.27;;;22.91;35.91
26711;BME280;18311;52.754;18.118;2023-02-16T14:55:30;100973.33;;;23.33;35.49
26711;BME280;18311;52.754;18.118;2023-02-16T15:01:11;100983.24;;;23.04;36.03
26711;BME280;18311;52.754;18.118;2023-02-16T15:03:53;100976.27;;;23.61;35.29
26711;BME280;18311;52.754;18.118;2023-02-16T15:06:32;100972.13;;;22.86;35.99
26711;BME280;18311;52.754;18.118;2023-02-16T15:09:02;100968.98;;;24.01;34.46
26711;BME280;18311;52.754;18.118;2023-02-16T15:11:47;100971.30;;;23.86;34.83
26711;BME280;18311;52.754;18.118;2023-02-16T15:14:13;100967.98;;;23.82;34.84
26711;BME280;18311;52.754;18.118;2023-02-16T15:16:43;100961.30;;;23.46;35.24